sensor_id;sensor_type;location;lat;lon;timestamp;P1;durP1;ratioP1;P2;durP2;ratioP2
25511;SDS011;13414;44.534;18.700;2022-12-08T00:02:25;91.45;;;60.38;;
25511;SDS011;13414;44.534;18.700;2022-12-08T00:04:53;67.35;;;44.42;;
25511;SDS011;13414;44.534;18.700;2022-12-08T00:07:37;72.22;;;47.70;;
25511;SDS011;13414;44.534;18.700;2022-12-08T00:10:22;57.28;;;39.97;;
25511;SDS011;13414;44.534;18.700;2022-12-08T00:12:52;51.22;;;37.95;;
25511;SDS011;13414;44.534;18.700;2022-12-08T00:15:19;45.03;;;32.22;;
25511;SDS011;13414;44.534;18.700;2022-12-08T00:17:47;34.33;;;23.88;;
25511;SDS011;13414;44.534;18.700;2022-12-08T00:20:14;33.15;;;22.73;;
25511;SDS011;13414;44.534;18.700;2022-12-08T00:22:42;40.80;;;27.27;;
25511;SDS011;13414;44.534;18.700;2022-12-08T00:25:10;43.22;;;29.88;;
25511;SDS011;13414;44.534;18.700;2022-12-08T00:27:38;42.78;;;29.85;;
25511;SDS011;13414;44.534;18.700;2022-12-08T00:30:08;50.58;;;36.30;;
25511;SDS011;13414;44.534;18.700;2022-12-08T00:32:36;57.80;;;38.15;;
25511;SDS011;13414;44.534;18.700;2022-12-08T00:35:04;46.90;;;32.35;;
25511;SDS011;13414;44.534;18.700;2022-12-08T00:37:32;51.42;;;34.22;;
25511;SDS011;13414;44.534;18.700;2022-12-08T00:39:59;64.75;;;43.78;;
25511;SDS011;13414;44.534;18.700;2022-12-08T00:42:26;68.90;;;45.88;;
25511;SDS011;13414;44.534;18.700;2022-12-08T00:44:54;67.30;;;43.08;;
25511;SDS011;13414;44.534;18.700;2022-12-08T00:47:22;61.53;;;40.72;;
25511;SDS011;13414;44.534;18.700;2022-12-08T00:49:50;45.40;;;31.02;;
25511;SDS011;13414;44.534;18.700;2022-12-08T00:52:17;52.10;;;34.00;;
25511;SDS011;13414;44.534;18.700;2022-12-08T00:54:46;49.30;;;33.17;;
25511;SDS011;13414;44.534;18.700;2022-12-08T00:57:13;47.55;;;32.45;;
25511;SDS011;13414;44.534;18.700;2022-12-08T00:59:41;48.40;;;32.30;;
25511;SDS011;13414;44.534;18.700;2022-12-08T01:02:16;50.60;;;34.50;;
25511;SDS011;13414;44.534;18.700;2022-12-08T01:04:45;52.92;;;34.00;;
25511;SDS011;13414;44.534;18.700;2022-12-08T01:07:12;58.25;;;38.42;;
25511;SDS011;13414;44.534;18.700;2022-12-08T01:09:39;64.22;;;39.08;;
25511;SDS011;13414;44.534;18.700;2022-12-08T01:12:07;56.55;;;37.60;;
25511;SDS011;13414;44.534;18.700;2022-12-08T01:14:37;55.70;;;36.65;;
25511;SDS011;13414;44.534;18.700;2022-12-08T01:17:04;55.05;;;36.83;;
25511;SDS011;13414;44.534;18.700;2022-12-08T01:19:32;61.20;;;38.65;;
25511;SDS011;13414;44.534;18.700;2022-12-08T01:22:01;64.18;;;41.47;;
25511;SDS011;13414;44.534;18.700;2022-12-08T01:24:28;61.92;;;42.08;;
25511;SDS011;13414;44.534;18.700;2022-12-08T01:26:56;61.78;;;39.60;;
25511;SDS011;13414;44.534;18.700;2022-12-08T01:29:23;69.80;;;45.70;;
25511;SDS011;13414;44.534;18.700;2022-12-08T01:31:52;60.70;;;40.78;;
25511;SDS011;13414;44.534;18.700;2022-12-08T01:34:19;78.65;;;51.47;;
25511;SDS011;13414;44.534;18.700;2022-12-08T01:36:46;85.30;;;56.53;;
25511;SDS011;13414;44.534;18.700;2022-12-08T01:39:16;85.28;;;56.30;;
25511;SDS011;13414;44.534;18.700;2022-12-08T01:41:45;90.20;;;59.70;;
25511;SDS011;13414;44.534;18.700;2022-12-08T01:47:22;84.55;;;57.15;;
25511;SDS011;13414;44.534;18.700;2022-12-08T01:49:51;83.32;;;53.22;;
25511;SDS011;13414;44.534;18.700;2022-12-08T01:52:20;83.20;;;54.25;;
25511;SDS011;13414;44.534;18.700;2022-12-08T01:54:53;80.20;;;51.88;;
25511;SDS011;13414;44.534;18.700;2022-12-08T01:57:24;74.32;;;50.45;;
25511;SDS011;13414;44.534;18.700;2022-12-08T01:59:56;64.70;;;45.90;;
25511;SDS011;13414;44.534;18.700;2022-12-08T02:02:28;71.05;;;47.50;;
25511;SDS011;13414;44.534;18.700;2022-12-08T02:04:59;63.97;;;43.20;;
25511;SDS011;13414;44.534;18.700;2022-12-08T02:07:28;56.03;;;38.50;;
25511;SDS011;13414;44.534;18.700;2022-12-08T02:09:58;50.40;;;34.47;;
25511;SDS011;13414;44.534;18.700;2022-12-08T02:12:26;49.58;;;34.70;;
25511;SDS011;13414;44.534;18.700;2022-12-08T02:14:53;53.97;;;37.35;;
25511;SDS011;13414;44.534;18.700;2022-12-08T02:17:25;63.03;;;41.50;;
25511;SDS011;13414;44.534;18.700;2022-12-08T02:23:00;77.35;;;51.65;;
25511;SDS011;13414;44.534;18.700;2022-12-08T02:25:41;72.03;;;48.65;;
25511;SDS011;13414;44.534;18.700;2022-12-08T02:28:28;80.03;;;55.78;;
25511;SDS011;13414;44.534;18.700;2022-12-08T02:31:16;76.90;;;55.03;;
25511;SDS011;13414;44.534;18.700;2022-12-08T02:33:59;87.40;;;57.75;;
25511;SDS011;13414;44.534;18.700;2022-12-08T02:36:34;79.97;;;55.53;;
25511;SDS011;13414;44.534;18.700;2022-12-08T02:39:09;82.55;;;54.70;;
25511;SDS011;13414;44.534;18.700;2022-12-08T02:41:45;76.95;;;52.92;;
25511;SDS011;13414;44.534;18.700;2022-12-08T02:44:21;93.25;;;60.80;;
25511;SDS011;13414;44.534;18.700;2022-12-08T02:46:54;84.93;;;59.33;;
25511;SDS011;13414;44.534;18.700;2022-12-08T02:49:28;85.05;;;58.35;;
25511;SDS011;13414;44.534;18.700;2022-12-08T02:52:07;79.65;;;53.53;;
25511;SDS011;13414;44.534;18.700;2022-12-08T02:55:08;76.13;;;50.88;;
25511;SDS011;13414;44.534;18.700;2022-12-08T02:57:49;81.80;;;55.30;;
25511;SDS011;13414;44.534;18.700;2022-12-08T03:00:30;84.15;;;56.47;;
25511;SDS011;13414;44.534;18.700;2022-12-08T03:03:10;74.32;;;51.42;;
25511;SDS011;13414;44.534;18.700;2022-12-08T03:05:51;72.68;;;49.13;;
25511;SDS011;13414;44.534;18.700;2022-12-08T03:08:27;72.80;;;49.88;;
25511;SDS011;13414;44.534;18.700;2022-12-08T03:11:01;69.50;;;47.83;;
25511;SDS011;13414;44.534;18.700;2022-12-08T03:13:35;75.97;;;50.72;;
25511;SDS011;13414;44.534;18.700;2022-12-08T03:16:06;73.03;;;50.38;;
25511;SDS011;13414;44.534;18.700;2022-12-08T03:18:38;78.70;;;52.13;;
25511;SDS011;13414;44.534;18.700;2022-12-08T03:21:12;71.40;;;47.50;;
25511;SDS011;13414;44.534;18.700;2022-12-08T03:23:43;67.25;;;44.90;;
25511;SDS011;13414;44.534;18.700;2022-12-08T03:26:15;53.40;;;37.75;;
25511;SDS011;13414;44.534;18.700;2022-12-08T03:28:45;53.38;;;38.40;;
25511;SDS011;13414;44.534;18.700;2022-12-08T03:31:13;49.78;;;34.20;;
25511;SDS011;13414;44.534;18.700;2022-12-08T03:33:43;48.95;;;32.55;;
25511;SDS011;13414;44.534;18.700;2022-12-08T03:36:16;43.13;;;28.90;;
25511;SDS011;13414;44.534;18.700;2022-12-08T03:38:44;42.05;;;28.60;;
25511;SDS011;13414;44.534;18.700;2022-12-08T03:41:12;44.90;;;31.20;;
25511;SDS011;13414;44.534;18.700;2022-12-08T03:43:50;52.70;;;36.53;;
25511;SDS011;13414;44.534;18.700;2022-12-08T03:46:19;50.80;;;35.35;;
25511;SDS011;13414;44.534;18.700;2022-12-08T03:48:48;42.30;;;29.10;;
25511;SDS011;13414;44.534;18.700;2022-12-08T03:51:17;41.67;;;28.42;;
25511;SDS011;13414;44.534;18.700;2022-12-08T03:53:45;40.35;;;26.52;;
25511;SDS011;13414;44.534;18.700;2022-12-08T03:56:14;40.17;;;27.48;;
25511;SDS011;13414;44.534;18.700;2022-12-08T03:58:45;39.58;;;29.25;;
25511;SDS011;13414;44.534;18.700;2022-12-08T04:01:14;34.15;;;23.88;;
25511;SDS011;13414;44.534;18.700;2022-12-08T04:03:42;28.85;;;19.98;;
25511;SDS011;13414;44.534;18.700;2022-12-08T04:09:02;37.50;;;26.40;;
25511;SDS011;13414;44.534;18.700;2022-12-08T04:11:29;35.85;;;25.45;;
25511;SDS011;13414;44.534;18.700;2022-12-08T04:14:09;38.63;;;27.48;;
25511;SDS011;13414;44.534;18.700;2022-12-08T04:16:36;36.83;;;25.63;;
25511;SDS011;13414;44.534;18.700;2022-12-08T04:19:04;34.72;;;23.52;;
25511;SDS011;13414;44.534;18.700;2022-12-08T04:21:33;28.88;;;20.63;;
25511;SDS011;13414;44.534;18.700;2022-12-08T04:24:02;30.33;;;21.98;;
25511;SDS011;13414;44.534;18.700;2022-12-08T04:26:29;33.35;;;24.15;;
25511;SDS011;13414;44.534;18.700;2022-12-08T04:28:56;42.33;;;28.60;;
25511;SDS011;13414;44.534;18.700;2022-12-08T04:31:24;42.45;;;29.70;;
25511;SDS011;13414;44.534;18.700;2022-12-08T04:33:51;45.13;;;30.00;;
25511;SDS011;13414;44.534;18.700;2022-12-08T04:36:19;39.95;;;28.42;;
25511;SDS011;13414;44.534;18.700;2022-12-08T04:38:47;39.15;;;26.92;;
25511;SDS011;13414;44.534;18.700;2022-12-08T04:41:15;41.28;;;28.38;;
25511;SDS011;13414;44.534;18.700;2022-12-08T04:43:42;42.50;;;29.25;;
25511;SDS011;13414;44.534;18.700;2022-12-08T04:46:10;36.08;;;25.77;;
25511;SDS011;13414;44.534;18.700;2022-12-08T04:48:38;37.08;;;27.67;;
25511;SDS011;13414;44.534;18.700;2022-12-08T04:51:06;42.55;;;29.50;;
25511;SDS011;13414;44.534;18.700;2022-12-08T04:53:38;49.80;;;36.03;;
25511;SDS011;13414;44.534;18.700;2022-12-08T04:56:11;45.00;;;31.63;;
25511;SDS011;13414;44.534;18.700;2022-12-08T04:58:40;50.95;;;32.78;;
25511;SDS011;13414;44.534;18.700;2022-12-08T05:01:08;57.03;;;37.88;;
25511;SDS011;13414;44.534;18.700;2022-12-08T05:03:35;65.50;;;43.88;;
25511;SDS011;13414;44.534;18.700;2022-12-08T05:06:03;58.22;;;39.97;;
25511;SDS011;13414;44.534;18.700;2022-12-08T05:08:32;60.80;;;42.13;;
25511;SDS011;13414;44.534;18.700;2022-12-08T05:11:02;61.20;;;41.78;;
25511;SDS011;13414;44.534;18.700;2022-12-08T05:13:32;62.65;;;42.40;;
25511;SDS011;13414;44.534;18.700;2022-12-08T05:16:03;57.13;;;41.40;;
25511;SDS011;13414;44.534;18.700;2022-12-08T05:18:34;64.30;;;42.78;;
25511;SDS011;13414;44.534;18.700;2022-12-08T05:21:03;70.75;;;46.90;;
25511;SDS011;13414;44.534;18.700;2022-12-08T05:23:31;66.28;;;45.45;;
25511;SDS011;13414;44.534;18.700;2022-12-08T05:25:58;66.78;;;46.22;;
25511;SDS011;13414;44.534;18.700;2022-12-08T05:28:28;69.35;;;46.40;;
25511;SDS011;13414;44.534;18.700;2022-12-08T05:30:58;69.30;;;46.63;;
25511;SDS011;13414;44.534;18.700;2022-12-08T05:33:26;63.97;;;43.83;;
25511;SDS011;13414;44.534;18.700;2022-12-08T05:35:56;55.97;;;38.92;;
25511;SDS011;13414;44.534;18.700;2022-12-08T05:38:24;60.15;;;40.88;;
25511;SDS011;13414;44.534;18.700;2022-12-08T05:40:53;64.47;;;41.13;;
25511;SDS011;13414;44.534;18.700;2022-12-08T05:43:21;96.20;;;54.00;;
25511;SDS011;13414;44.534;18.700;2022-12-08T05:45:49;129.82;;;66.93;;
25511;SDS011;13414;44.534;18.700;2022-12-08T05:48:27;105.65;;;56.75;;
25511;SDS011;13414;44.534;18.700;2022-12-08T05:50:54;88.28;;;50.45;;
25511;SDS011;13414;44.534;18.700;2022-12-08T05:53:24;81.95;;;47.42;;
25511;SDS011;13414;44.534;18.700;2022-12-08T05:55:51;81.55;;;47.13;;
25511;SDS011;13414;44.534;18.700;2022-12-08T05:58:19;75.70;;;45.53;;
25511;SDS011;13414;44.534;18.700;2022-12-08T06:00:49;74.93;;;46.20;;
25511;SDS011;13414;44.534;18.700;2022-12-08T06:03:17;67.32;;;43.58;;
25511;SDS011;13414;44.534;18.700;2022-12-08T06:05:47;62.40;;;41.63;;
25511;SDS011;13414;44.534;18.700;2022-12-08T06:08:16;66.88;;;44.25;;
25511;SDS011;13414;44.534;18.700;2022-12-08T06:10:44;65.40;;;42.25;;
25511;SDS011;13414;44.534;18.700;2022-12-08T06:13:13;69.35;;;46.22;;
25511;SDS011;13414;44.534;18.700;2022-12-08T06:15:41;81.13;;;52.35;;
25511;SDS011;13414;44.534;18.700;2022-12-08T06:18:09;73.60;;;50.63;;
25511;SDS011;13414;44.534;18.700;2022-12-08T06:20:38;88.20;;;56.28;;
25511;SDS011;13414;44.534;18.700;2022-12-08T06:23:07;78.20;;;53.05;;
25511;SDS011;13414;44.534;18.700;2022-12-08T06:25:34;82.78;;;54.42;;
25511;SDS011;13414;44.534;18.700;2022-12-08T06:28:03;100.15;;;65.68;;
25511;SDS011;13414;44.534;18.700;2022-12-08T06:30:31;125.43;;;78.43;;
25511;SDS011;13414;44.534;18.700;2022-12-08T06:32:58;115.05;;;69.47;;
25511;SDS011;13414;44.534;18.700;2022-12-08T06:35:26;64.68;;;43.90;;
25511;SDS011;13414;44.534;18.700;2022-12-08T06:37:53;74.80;;;48.05;;
25511;SDS011;13414;44.534;18.700;2022-12-08T06:40:22;76.18;;;52.08;;
25511;SDS011;13414;44.534;18.700;2022-12-08T06:42:50;82.20;;;55.38;;
25511;SDS011;13414;44.534;18.700;2022-12-08T06:45:18;83.45;;;54.47;;
25511;SDS011;13414;44.534;18.700;2022-12-08T06:47:45;90.93;;;61.85;;
25511;SDS011;13414;44.534;18.700;2022-12-08T06:50:13;114.07;;;73.20;;
25511;SDS011;13414;44.534;18.700;2022-12-08T06:52:40;110.50;;;66.90;;
25511;SDS011;13414;44.534;18.700;2022-12-08T06:55:08;96.43;;;63.65;;
25511;SDS011;13414;44.534;18.700;2022-12-08T06:57:39;80.80;;;52.78;;
25511;SDS011;13414;44.534;18.700;2022-12-08T07:00:07;96.22;;;60.22;;
25511;SDS011;13414;44.534;18.700;2022-12-08T07:02:35;103.40;;;65.45;;
25511;SDS011;13414;44.534;18.700;2022-12-08T07:05:03;113.60;;;71.45;;
25511;SDS011;13414;44.534;18.700;2022-12-08T07:07:31;116.03;;;70.40;;
25511;SDS011;13414;44.534;18.700;2022-12-08T07:10:02;107.32;;;68.18;;
25511;SDS011;13414;44.534;18.700;2022-12-08T07:12:30;114.55;;;71.93;;
25511;SDS011;13414;44.534;18.700;2022-12-08T07:14:59;112.82;;;71.80;;
25511;SDS011;13414;44.534;18.700;2022-12-08T07:17:26;104.22;;;67.95;;
25511;SDS011;13414;44.534;18.700;2022-12-08T07:19:54;94.78;;;62.10;;
25511;SDS011;13414;44.534;18.700;2022-12-08T07:22:22;102.18;;;62.35;;
25511;SDS011;13414;44.534;18.700;2022-12-08T07:24:49;107.72;;;69.80;;
25511;SDS011;13414;44.534;18.700;2022-12-08T07:27:17;127.20;;;79.75;;
25511;SDS011;13414;44.534;18.700;2022-12-08T07:29:47;117.78;;;74.95;;
25511;SDS011;13414;44.534;18.700;2022-12-08T07:32:16;107.45;;;66.88;;
25511;SDS011;13414;44.534;18.700;2022-12-08T07:34:45;121.70;;;74.97;;
25511;SDS011;13414;44.534;18.700;2022-12-08T07:37:13;115.60;;;73.68;;
25511;SDS011;13414;44.534;18.700;2022-12-08T07:39:49;109.70;;;66.72;;
25511;SDS011;13414;44.534;18.700;2022-12-08T07:42:17;72.00;;;49.25;;
25511;SDS011;13414;44.534;18.700;2022-12-08T07:44:46;78.53;;;51.30;;
25511;SDS011;13414;44.534;18.700;2022-12-08T07:47:16;72.03;;;48.05;;
25511;SDS011;13414;44.534;18.700;2022-12-08T07:49:43;67.18;;;45.53;;
25511;SDS011;13414;44.534;18.700;2022-12-08T07:52:12;62.53;;;43.03;;
25511;SDS011;13414;44.534;18.700;2022-12-08T07:54:39;49.10;;;32.10;;
25511;SDS011;13414;44.534;18.700;2022-12-08T08:00:21;54.03;;;36.75;;
25511;SDS011;13414;44.534;18.700;2022-12-08T08:02:50;47.22;;;33.72;;
25511;SDS011;13414;44.534;18.700;2022-12-08T08:05:18;49.88;;;34.10;;
25511;SDS011;13414;44.534;18.700;2022-12-08T08:07:45;34.35;;;25.38;;
25511;SDS011;13414;44.534;18.700;2022-12-08T08:10:12;38.13;;;28.13;;
25511;SDS011;13414;44.534;18.700;2022-12-08T08:12:40;38.45;;;26.85;;
25511;SDS011;13414;44.534;18.700;2022-12-08T08:15:09;41.03;;;28.83;;
25511;SDS011;13414;44.534;18.700;2022-12-08T08:17:37;39.22;;;27.25;;
25511;SDS011;13414;44.534;18.700;2022-12-08T08:20:06;41.20;;;27.30;;
25511;SDS011;13414;44.534;18.700;2022-12-08T08:22:34;39.17;;;26.63;;
25511;SDS011;13414;44.534;18.700;2022-12-08T08:25:02;39.72;;;27.27;;
25511;SDS011;13414;44.534;18.700;2022-12-08T08:27:30;39.78;;;27.98;;
25511;SDS011;13414;44.534;18.700;2022-12-08T08:29:57;39.20;;;27.38;;
25511;SDS011;13414;44.534;18.700;2022-12-08T08:32:25;47.25;;;31.75;;
25511;SDS011;13414;44.534;18.700;2022-12-08T08:34:52;43.85;;;29.35;;
25511;SDS011;13414;44.534;18.700;2022-12-08T08:37:21;43.97;;;31.77;;
25511;SDS011;13414;44.534;18.700;2022-12-08T08:39:48;46.17;;;32.92;;
25511;SDS011;13414;44.534;18.700;2022-12-08T08:42:16;44.03;;;32.30;;
25511;SDS011;13414;44.534;18.700;2022-12-08T08:44:43;48.30;;;33.25;;
25511;SDS011;13414;44.534;18.700;2022-12-08T08:47:10;45.63;;;30.95;;
25511;SDS011;13414;44.534;18.700;2022-12-08T08:49:38;49.58;;;34.28;;
25511;SDS011;13414;44.534;18.700;2022-12-08T08:52:05;41.85;;;29.40;;
25511;SDS011;13414;44.534;18.700;2022-12-08T08:54:34;40.53;;;28.15;;
25511;SDS011;13414;44.534;18.700;2022-12-08T08:57:02;41.38;;;25.42;;
25511;SDS011;13414;44.534;18.700;2022-12-08T08:59:29;38.17;;;25.67;;
25511;SDS011;13414;44.534;18.700;2022-12-08T09:01:57;45.53;;;31.80;;
25511;SDS011;13414;44.534;18.700;2022-12-08T09:04:24;52.55;;;36.38;;
25511;SDS011;13414;44.534;18.700;2022-12-08T09:06:51;41.72;;;30.25;;
25511;SDS011;13414;44.534;18.700;2022-12-08T09:09:19;44.70;;;30.13;;
25511;SDS011;13414;44.534;18.700;2022-12-08T09:11:48;34.35;;;23.08;;
25511;SDS011;13414;44.534;18.700;2022-12-08T09:14:15;30.67;;;22.45;;
25511;SDS011;13414;44.534;18.700;2022-12-08T09:16:42;31.13;;;21.25;;
25511;SDS011;13414;44.534;18.700;2022-12-08T09:19:10;32.42;;;23.42;;
25511;SDS011;13414;44.534;18.700;2022-12-08T09:21:37;36.55;;;25.52;;
25511;SDS011;13414;44.534;18.700;2022-12-08T09:24:05;32.75;;;24.00;;
25511;SDS011;13414;44.534;18.700;2022-12-08T09:26:34;30.10;;;21.92;;
25511;SDS011;13414;44.534;18.700;2022-12-08T09:29:03;30.42;;;22.23;;
25511;SDS011;13414;44.534;18.700;2022-12-08T09:31:30;26.35;;;18.30;;
25511;SDS011;13414;44.534;18.700;2022-12-08T09:33:58;28.23;;;19.55;;
25511;SDS011;13414;44.534;18.700;2022-12-08T09:36:25;29.23;;;20.15;;
25511;SDS011;13414;44.534;18.700;2022-12-08T09:38:53;37.35;;;25.17;;
25511;SDS011;13414;44.534;18.700;2022-12-08T09:41:22;38.60;;;26.45;;
25511;SDS011;13414;44.534;18.700;2022-12-08T09:44:00;26.15;;;19.70;;
25511;SDS011;13414;44.534;18.700;2022-12-08T09:46:34;31.35;;;20.98;;
25511;SDS011;13414;44.534;18.700;2022-12-08T09:49:03;27.48;;;21.13;;
25511;SDS011;13414;44.534;18.700;2022-12-08T09:51:35;30.15;;;21.63;;
25511;SDS011;13414;44.534;18.700;2022-12-08T09:54:06;30.50;;;21.80;;
25511;SDS011;13414;44.534;18.700;2022-12-08T09:56:41;30.90;;;21.95;;
25511;SDS011;13414;44.534;18.700;2022-12-08T09:59:15;33.70;;;23.90;;
25511;SDS011;13414;44.534;18.700;2022-12-08T10:01:48;34.28;;;22.52;;
25511;SDS011;13414;44.534;18.700;2022-12-08T10:04:19;31.77;;;21.67;;
25511;SDS011;13414;44.534;18.700;2022-12-08T10:06:55;27.92;;;19.35;;
25511;SDS011;13414;44.534;18.700;2022-12-08T10:09:31;28.20;;;18.55;;
25511;SDS011;13414;44.534;18.700;2022-12-08T10:12:06;30.75;;;20.08;;
25511;SDS011;13414;44.534;18.700;2022-12-08T10:14:42;26.95;;;18.45;;
25511;SDS011;13414;44.534;18.700;2022-12-08T10:17:14;29.10;;;20.70;;
25511;SDS011;13414;44.534;18.700;2022-12-08T10:19:45;32.92;;;22.80;;
25511;SDS011;13414;44.534;18.700;2022-12-08T10:22:17;33.70;;;23.77;;
25511;SDS011;13414;44.534;18.700;2022-12-08T10:24:50;41.38;;;27.90;;
25511;SDS011;13414;44.534;18.700;2022-12-08T10:27:23;46.15;;;30.17;;
25511;SDS011;13414;44.534;18.700;2022-12-08T10:29:52;52.78;;;35.17;;
25511;SDS011;13414;44.534;18.700;2022-12-08T10:32:20;55.00;;;35.15;;
25511;SDS011;13414;44.534;18.700;2022-12-08T10:35:00;51.55;;;36.67;;
25511;SDS011;13414;44.534;18.700;2022-12-08T10:37:29;57.40;;;39.47;;
25511;SDS011;13414;44.534;18.700;2022-12-08T10:40:00;66.55;;;44.45;;
25511;SDS011;13414;44.534;18.700;2022-12-08T10:42:32;62.25;;;42.28;;
25511;SDS011;13414;44.534;18.700;2022-12-08T10:45:12;67.25;;;44.70;;
25511;SDS011;13414;44.534;18.700;2022-12-08T10:47:50;65.20;;;45.20;;
25511;SDS011;13414;44.534;18.700;2022-12-08T10:50:26;60.55;;;40.47;;
25511;SDS011;13414;44.534;18.700;2022-12-08T10:52:56;51.47;;;33.75;;
25511;SDS011;13414;44.534;18.700;2022-12-08T10:55:25;56.35;;;38.53;;
25511;SDS011;13414;44.534;18.700;2022-12-08T10:57:53;45.83;;;32.55;;
25511;SDS011;13414;44.534;18.700;2022-12-08T11:00:22;46.67;;;32.83;;
25511;SDS011;13414;44.534;18.700;2022-12-08T11:02:53;51.85;;;35.42;;
25511;SDS011;13414;44.534;18.700;2022-12-08T11:05:25;57.53;;;37.05;;
25511;SDS011;13414;44.534;18.700;2022-12-08T11:07:54;59.75;;;40.78;;
25511;SDS011;13414;44.534;18.700;2022-12-08T11:10:32;54.45;;;35.92;;
25511;SDS011;13414;44.534;18.700;2022-12-08T11:13:02;49.33;;;31.85;;
25511;SDS011;13414;44.534;18.700;2022-12-08T11:15:34;44.15;;;31.27;;
25511;SDS011;13414;44.534;18.700;2022-12-08T11:18:08;51.92;;;36.58;;
25511;SDS011;13414;44.534;18.700;2022-12-08T11:21:01;61.85;;;43.60;;
25511;SDS011;13414;44.534;18.700;2022-12-08T11:23:34;56.65;;;40.15;;
25511;SDS011;13414;44.534;18.700;2022-12-08T11:26:04;56.10;;;37.63;;
25511;SDS011;13414;44.534;18.700;2022-12-08T11:28:38;84.65;;;53.65;;
25511;SDS011;13414;44.534;18.700;2022-12-08T11:31:11;86.88;;;52.95;;
25511;SDS011;13414;44.534;18.700;2022-12-08T11:33:47;105.30;;;69.00;;
25511;SDS011;13414;44.534;18.700;2022-12-08T11:36:16;105.30;;;68.80;;
25511;SDS011;13414;44.534;18.700;2022-12-08T11:38:47;93.18;;;63.03;;
25511;SDS011;13414;44.534;18.700;2022-12-08T11:41:18;86.93;;;58.38;;
25511;SDS011;13414;44.534;18.700;2022-12-08T11:43:49;85.55;;;54.78;;
25511;SDS011;13414;44.534;18.700;2022-12-08T11:46:23;99.60;;;63.67;;
25511;SDS011;13414;44.534;18.700;2022-12-08T11:48:58;99.47;;;66.78;;
25511;SDS011;13414;44.534;18.700;2022-12-08T11:51:28;127.57;;;86.75;;
25511;SDS011;13414;44.534;18.700;2022-12-08T11:54:02;139.38;;;98.03;;
25511;SDS011;13414;44.534;18.700;2022-12-08T11:56:37;140.05;;;92.70;;
25511;SDS011;13414;44.534;18.700;2022-12-08T11:59:09;135.98;;;91.18;;
25511;SDS011;13414;44.534;18.700;2022-12-08T12:01:47;115.60;;;78.60;;
25511;SDS011;13414;44.534;18.700;2022-12-08T12:04:19;105.93;;;72.45;;
25511;SDS011;13414;44.534;18.700;2022-12-08T12:10:08;99.13;;;64.32;;
25511;SDS011;13414;44.534;18.700;2022-12-08T12:12:52;97.65;;;64.30;;
25511;SDS011;13414;44.534;18.700;2022-12-08T12:15:50;94.70;;;61.25;;
25511;SDS011;13414;44.534;18.700;2022-12-08T12:18:44;86.75;;;56.80;;
25511;SDS011;13414;44.534;18.700;2022-12-08T12:21:14;69.80;;;47.35;;
25511;SDS011;13414;44.534;18.700;2022-12-08T12:23:47;71.10;;;48.47;;
25511;SDS011;13414;44.534;18.700;2022-12-08T12:26:19;61.72;;;43.95;;
25511;SDS011;13414;44.534;18.700;2022-12-08T12:28:49;63.42;;;43.65;;
25511;SDS011;13414;44.534;18.700;2022-12-08T12:31:20;63.42;;;43.60;;
25511;SDS011;13414;44.534;18.700;2022-12-08T12:33:54;58.58;;;40.80;;
25511;SDS011;13414;44.534;18.700;2022-12-08T12:36:30;57.50;;;39.47;;
25511;SDS011;13414;44.534;18.700;2022-12-08T12:39:09;55.95;;;38.05;;
25511;SDS011;13414;44.534;18.700;2022-12-08T12:41:41;51.30;;;35.53;;
25511;SDS011;13414;44.534;18.700;2022-12-08T12:44:23;50.05;;;35.13;;
25511;SDS011;13414;44.534;18.700;2022-12-08T12:47:05;39.05;;;28.80;;
25511;SDS011;13414;44.534;18.700;2022-12-08T12:50:04;37.35;;;28.35;;
25511;SDS011;13414;44.534;18.700;2022-12-08T12:57:49;39.83;;;26.25;;
25511;SDS011;13414;44.534;18.700;2022-12-08T13:00:19;37.20;;;27.58;;
25511;SDS011;13414;44.534;18.700;2022-12-08T13:02:47;39.47;;;27.42;;
25511;SDS011;13414;44.534;18.700;2022-12-08T13:05:18;36.20;;;24.52;;
25511;SDS011;13414;44.534;18.700;2022-12-08T13:07:48;37.10;;;26.15;;
25511;SDS011;13414;44.534;18.700;2022-12-08T13:10:19;38.72;;;27.25;;
25511;SDS011;13414;44.534;18.700;2022-12-08T13:13:05;35.78;;;25.77;;
25511;SDS011;13414;44.534;18.700;2022-12-08T13:15:46;35.35;;;26.98;;
25511;SDS011;13414;44.534;18.700;2022-12-08T13:18:16;40.05;;;29.30;;
25511;SDS011;13414;44.534;18.700;2022-12-08T13:20:49;49.63;;;33.00;;
25511;SDS011;13414;44.534;18.700;2022-12-08T13:23:25;60.13;;;43.10;;
25511;SDS011;13414;44.534;18.700;2022-12-08T13:29:04;70.07;;;47.30;;
25511;SDS011;13414;44.534;18.700;2022-12-08T13:31:39;73.95;;;49.90;;
25511;SDS011;13414;44.534;18.700;2022-12-08T13:34:11;78.32;;;50.80;;
25511;SDS011;13414;44.534;18.700;2022-12-08T13:36:50;75.50;;;51.60;;
25511;SDS011;13414;44.534;18.700;2022-12-08T13:39:23;79.75;;;55.33;;
25511;SDS011;13414;44.534;18.700;2022-12-08T13:41:59;86.13;;;61.50;;
25511;SDS011;13414;44.534;18.700;2022-12-08T13:44:31;83.22;;;57.97;;
25511;SDS011;13414;44.534;18.700;2022-12-08T13:47:03;80.32;;;55.22;;
25511;SDS011;13414;44.534;18.700;2022-12-08T13:49:36;91.88;;;63.88;;
25511;SDS011;13414;44.534;18.700;2022-12-08T13:52:14;85.35;;;60.53;;
25511;SDS011;13414;44.534;18.700;2022-12-08T13:54:44;88.85;;;61.38;;
25511;SDS011;13414;44.534;18.700;2022-12-08T13:57:17;86.20;;;60.45;;
25511;SDS011;13414;44.534;18.700;2022-12-08T13:59:51;81.30;;;57.15;;
25511;SDS011;13414;44.534;18.700;2022-12-08T14:02:19;91.90;;;59.25;;
25511;SDS011;13414;44.534;18.700;2022-12-08T14:04:53;71.00;;;51.20;;
25511;SDS011;13414;44.534;18.700;2022-12-08T14:07:22;68.70;;;48.28;;
25511;SDS011;13414;44.534;18.700;2022-12-08T14:09:50;77.10;;;51.60;;
25511;SDS011;13414;44.534;18.700;2022-12-08T14:12:19;69.13;;;48.78;;
25511;SDS011;13414;44.534;18.700;2022-12-08T14:14:49;75.95;;;54.40;;
25511;SDS011;13414;44.534;18.700;2022-12-08T14:17:24;84.10;;;57.58;;
25511;SDS011;13414;44.534;18.700;2022-12-08T14:19:52;91.80;;;62.70;;
25511;SDS011;13414;44.534;18.700;2022-12-08T14:22:30;91.70;;;65.93;;
25511;SDS011;13414;44.534;18.700;2022-12-08T14:25:04;96.78;;;65.53;;
25511;SDS011;13414;44.534;18.700;2022-12-08T14:27:39;91.05;;;64.80;;
25511;SDS011;13414;44.534;18.700;2022-12-08T14:30:15;83.70;;;60.08;;
25511;SDS011;13414;44.534;18.700;2022-12-08T14:32:47;80.25;;;57.60;;
25511;SDS011;13414;44.534;18.700;2022-12-08T14:35:18;79.75;;;56.67;;
25511;SDS011;13414;44.534;18.700;2022-12-08T14:37:50;83.32;;;59.70;;
25511;SDS011;13414;44.534;18.700;2022-12-08T14:40:21;83.43;;;58.83;;
25511;SDS011;13414;44.534;18.700;2022-12-08T14:43:03;87.43;;;60.80;;
25511;SDS011;13414;44.534;18.700;2022-12-08T14:45:45;86.40;;;58.67;;
25511;SDS011;13414;44.534;18.700;2022-12-08T14:48:18;83.75;;;57.63;;
25511;SDS011;13414;44.534;18.700;2022-12-08T14:50:53;79.40;;;54.90;;
25511;SDS011;13414;44.534;18.700;2022-12-08T14:53:30;87.80;;;57.58;;
25511;SDS011;13414;44.534;18.700;2022-12-08T14:56:07;80.93;;;56.33;;